Terminal Aerodrome Forecast
Issued by NWS

Home | Current Version | Previous Version | Graphics & Text | Print | Product List | Glossary On
Versions: 1 2 3 4 5 6 7 8 9 10 11 12 13 14 15 16 17 18 19 20
000
FTUS43 KMPX 210500
TAFRNH
TAF
KRNH 210521Z 2106/2206 09006KT P6SM SCT035 SCT110 BKN250
     FM210900 12006KT 6SM -SHRA BR VCTS SCT015 BKN035CB
      TEMPO 2109/2112 2SM SHRA BKN025
     FM211200 12006KT 4SM -SHRA BR VCTS BKN020 BKN040CB
      TEMPO 2112/2114 2SM SHRA BKN012
     FM211500 12009KT 6SM BR BKN015 BKN030
     FM211800 14007KT P6SM BKN035
     FM220000 VRB02KT 4SM BR BKN050=

USA.gov is the U.S. government's official web portal to all federal, state and local government web resources and services.